Airfield :
LOGIN :

Register | Disclaimer

   EN    FR    IT 

 










Legend :    VFR   Marginal VFR   IFR   Intensive IFR   Very Intensive IFR
Visi :
Ceiling :
>= 8 km
>= 3000ft
5 to 8 km
1000 to 3000 ft
1500m to 5 km
500 to 1000 ft
800 to 1500m
200 to 500 ft
< 800m
< 200 ft
Symbols :   Thunderstorms  Fog  Heavy snow  Heavy precipitations  Wind > 20 kt
SIGMETs :     Misc.  Thunderstorms  Icing  Turbulence  Mountain Waves  Volcanic Ashes






- Airport Elevation : 74 ft
- IATA code : EIN


EHEH - Eindhoven

CURRENT METAR :
  • 192303Z AUTO 16002KT 2700 BR NCD 00/M00 Q1019 YLO

EXPIRED METARs :
  • 192243Z AUTO 18001KT 7000 BR FEW048 00/M00 Q1019 WHT
  • 192225Z AUTO 18001KT 9999 FEW049 01/00 Q1019 BLU
  • 192209Z AUTO 20002KT 9999 FEW048 00/00 Q1019 BLU
  • 192203Z AUTO 21003KT 6000 BR FEW047/// 00/M00 Q1019 WHT
  • 192146Z AUTO 20003KT 8000 BR NCD 01/01 Q1019 BLU VRB02KT 6000 NSC BECMG 4000 BR
  • 192130Z AUTO 18003KT 8000 BR NCD 02/01 Q1019 BLU VRB02KT 6000 NSC BECMG 4000 BR
  • 192125Z AUTO 20003KT 9999 NCD 02/01 Q1019 BLU VRB02KT 6000 NSC BECMG 4000 BR
  • 192104Z AUTO 22001KT 9000 R21/2200D BR NCD 01/00 Q1019 BLU VRB02KT 6000 NSC BECMG 4000 BR
  • 192055Z AUTO 24001KT 6000 BR NCD 01/00 Q1019 WHT VRB02KT 6000 NSC BECMG 4000 BR
  • 192025Z AUTO 26001KT 9999 NCD 02/02 Q1019 BLU 21004KT CAVOK BECMG VRB02KT 4000 BR

TAF TAF EHEH
Valid from the 19 at 18:00 until the 21 at 00:00 UTC


191729Z 1918/2024 20005KT 9999 SCT040
BECMG 1919/1922 VRB03KT 4000 BR MIFG
BECMG 1922/2001 2000
TEMPO 2000/2010 0800 FZFG
PROB30
TEMPO 2003/2008 0200 FZFG VV000
BECMG 2006/2009 SCT002 BKN005
BECMG 2010/2013 09006KT 9999 NSW SCT010
BECMG 2013/2016 SCT020
PROB40 2020/2024 4000 BR



MET'MAP, your aeronautical weather chart ! - Copyright ORBIFLY December 2007 - Disclaimer

ORBIFLY MET'MAP TEAM :

Programming & Development : Alexandra Zaïnal
Concept & Development : Baudouin d'Aumeries
Co-Development & Prog : Marc-Olivier Méhu
Technical & hardware support : Manuel Goepfert

Contact : metmap@orbifly.com




SOURCES & CREDITS :

   NOAA